createdAt,value
2022-11-24T00:01:09.959Z,2.70
2022-11-24T00:03:38.549Z,3.30
2022-11-24T00:06:07.529Z,3.13
2022-11-24T00:08:35.173Z,2.87
2022-11-24T00:11:07.312Z,2.90
2022-11-24T00:13:35.406Z,3.10
2022-11-24T00:16:09.220Z,3.23
2022-11-24T00:18:41.888Z,3.03
2022-11-24T00:21:09.730Z,3.83
2022-11-24T00:23:37.755Z,2.60
2022-11-24T00:26:08.563Z,3.07
2022-11-24T00:28:37.062Z,2.50
2022-11-24T00:31:16.960Z,2.70
2022-11-24T00:33:47.750Z,3.53
2022-11-24T00:36:16.635Z,3.80
2022-11-24T00:38:44.588Z,3.10
2022-11-24T00:41:12.380Z,3.93
2022-11-24T00:43:39.780Z,2.97
2022-11-24T00:46:07.627Z,3.07
2022-11-24T00:48:35.180Z,3.10
2022-11-24T00:51:08.647Z,3.20
2022-11-24T00:53:36.318Z,3.30
2022-11-24T00:56:04.515Z,3.77
2022-11-24T00:58:33.192Z,3.47
2022-11-24T01:01:04.674Z,3.13
2022-11-24T01:03:33.094Z,3.30
2022-11-24T01:06:05.802Z,3.33
2022-11-24T01:08:33.261Z,2.70
2022-11-24T01:11:13.647Z,3.23
2022-11-24T01:13:42.487Z,3.20
2022-11-24T01:16:17.438Z,3.20
2022-11-24T01:18:44.702Z,3.17
2022-11-24T01:21:16.045Z,3.70
2022-11-24T01:23:43.281Z,3.33
2022-11-24T01:26:14.167Z,3.07
2022-11-24T01:28:46.693Z,3.43
2022-11-24T01:31:16.404Z,3.27
2022-11-24T01:33:43.464Z,3.80
2022-11-24T01:36:11.926Z,3.53
2022-11-24T01:38:38.957Z,3.63
2022-11-24T01:41:10.270Z,4.17
2022-11-24T01:43:37.304Z,3.80
2022-11-24T01:46:16.430Z,3.57
2022-11-24T01:48:49.391Z,3.40
2022-11-24T01:51:23.590Z,3.73
2022-11-24T01:53:57.958Z,4.20
2022-11-24T01:56:25.625Z,3.90
2022-11-24T01:58:58.034Z,3.57
2022-11-24T02:01:25.704Z,3.80
2022-11-24T02:03:53.547Z,4.13
2022-11-24T02:06:27.365Z,3.80
2022-11-24T02:09:02.517Z,3.90
2022-11-24T02:11:34.943Z,3.87
2022-11-24T02:14:03.906Z,3.73
2022-11-24T02:16:32.477Z,4.20
2022-11-24T02:18:59.598Z,4.47
2022-11-24T02:21:28.189Z,4.50
2022-11-24T02:24:05.856Z,4.60
2022-11-24T02:26:41.958Z,4.50
2022-11-24T02:29:11.289Z,4.20
2022-11-24T02:31:39.959Z,4.93
2022-11-24T02:34:06.894Z,4.13
2022-11-24T02:36:33.917Z,4.07
2022-11-24T02:39:00.876Z,5.30
2022-11-24T02:41:29.048Z,3.90
2022-11-24T02:44:01.431Z,4.87
2022-11-24T02:46:28.379Z,4.47
2022-11-24T02:48:55.568Z,4.60
2022-11-24T02:51:22.951Z,4.67
2022-11-24T02:53:49.873Z,4.37
2022-11-24T02:56:16.807Z,4.30
2022-11-24T02:58:43.715Z,4.10
2022-11-24T03:01:12.095Z,4.03
2022-11-24T03:03:39.145Z,4.80
2022-11-24T03:06:06.279Z,4.20
2022-11-24T03:08:33.218Z,4.30
2022-11-24T03:11:01.444Z,4.67
2022-11-24T03:13:28.652Z,3.97
2022-11-24T03:15:55.771Z,4.93
2022-11-24T03:18:24.156Z,5.37
2022-11-24T03:20:51.100Z,4.80
2022-11-24T03:23:18.046Z,4.40
2022-11-24T03:25:44.990Z,4.37
2022-11-24T03:28:11.912Z,4.73
2022-11-24T03:30:38.903Z,5.60
2022-11-24T03:33:07.108Z,4.83
2022-11-24T03:35:35.406Z,5.23
2022-11-24T03:38:03.381Z,4.73
2022-11-24T03:40:30.391Z,5.17
2022-11-24T03:42:57.344Z,5.47
2022-11-24T03:48:11.221Z,5.70
2022-11-24T03:50:39.585Z,5.53
2022-11-24T03:53:06.537Z,5.80
2022-11-24T03:55:33.474Z,5.07
2022-11-24T03:58:00.472Z,5.60
2022-11-24T04:00:28.151Z,5.57
2022-11-24T04:02:55.137Z,5.50
2022-11-24T04:05:22.121Z,5.37
2022-11-24T04:07:50.441Z,5.40
2022-11-24T04:10:17.742Z,5.43
2022-11-24T04:12:44.669Z,5.43
2022-11-24T04:15:14.592Z,5.20
2022-11-24T04:17:43.086Z,5.87
2022-11-24T04:20:12.212Z,5.37
2022-11-24T04:22:39.834Z,6.33
2022-11-24T04:25:10.600Z,5.73
2022-11-24T04:27:38.541Z,5.70
2022-11-24T04:30:08.253Z,5.70
2022-11-24T04:32:35.919Z,5.83
2022-11-24T04:35:03.846Z,5.57
2022-11-24T04:37:30.847Z,6.20
2022-11-24T04:39:57.762Z,4.37
2022-11-24T04:42:26.107Z,5.40
2022-11-24T04:44:53.085Z,5.13
2022-11-24T04:47:22.525Z,5.47
2022-11-24T04:49:50.597Z,5.20
2022-11-24T04:52:19.400Z,5.80
2022-11-24T04:54:46.830Z,6.03
2022-11-24T04:57:17.573Z,5.97
2022-11-24T04:59:46.200Z,5.50
2022-11-24T05:02:13.301Z,5.37
2022-11-24T05:04:40.693Z,6.00
2022-11-24T05:07:12.365Z,5.37
2022-11-24T05:10:02.218Z,6.03
2022-11-24T05:12:31.124Z,5.60
2022-11-24T05:15:00.815Z,6.50
2022-11-24T05:17:29.500Z,5.90
2022-11-24T05:19:57.064Z,7.23
2022-11-24T05:22:24.171Z,5.50
2022-11-24T05:24:51.417Z,6.03
2022-11-24T05:27:18.363Z,5.73
2022-11-24T05:29:45.403Z,5.80
2022-11-24T05:32:13.701Z,6.67
2022-11-24T05:34:41.055Z,6.23
2022-11-24T05:37:08.211Z,5.77
2022-11-24T05:39:36.525Z,6.23
2022-11-24T05:42:25.443Z,5.70
2022-11-24T05:44:53.174Z,6.03
2022-11-24T05:47:22.108Z,5.73
2022-11-24T05:49:49.433Z,6.10
2022-11-24T05:52:16.602Z,7.07
2022-11-24T05:54:43.618Z,6.13
2022-11-24T05:57:10.567Z,6.50
2022-11-24T05:59:37.535Z,6.27
2022-11-24T06:02:04.677Z,5.77
2022-11-24T06:04:33.383Z,6.27
2022-11-24T06:07:00.523Z,6.10
2022-11-24T06:09:27.509Z,6.83
2022-11-24T06:11:54.685Z,7.10
2022-11-24T06:14:21.800Z,6.57
2022-11-24T06:16:48.812Z,6.87
2022-11-24T06:19:15.812Z,6.80
2022-11-24T06:21:44.148Z,5.93
2022-11-24T06:24:11.282Z,6.10
2022-11-24T06:26:38.286Z,6.80
2022-11-24T06:29:05.441Z,6.57
2022-11-24T06:31:32.872Z,6.57
2022-11-24T06:34:00.633Z,6.70
2022-11-24T06:36:28.010Z,6.27
2022-11-24T06:38:56.355Z,6.30
2022-11-24T06:41:23.401Z,5.97
2022-11-24T06:43:50.363Z,7.10
2022-11-24T06:46:18.763Z,7.47
2022-11-24T06:48:45.726Z,7.57
2022-11-24T06:51:13.141Z,7.77
2022-11-24T06:53:41.230Z,6.67
2022-11-24T06:56:16.109Z,6.30
2022-11-24T06:58:47.235Z,6.47
2022-11-24T07:01:14.997Z,6.33
2022-11-24T07:03:42.153Z,5.93
2022-11-24T07:06:09.119Z,6.60
2022-11-24T07:08:36.103Z,5.73
2022-11-24T07:11:06.014Z,5.93
2022-11-24T07:13:34.586Z,5.87
2022-11-24T07:16:12.413Z,6.10
2022-11-24T07:18:39.535Z,6.03
2022-11-24T07:21:07.007Z,6.43
2022-11-24T07:23:33.973Z,6.60
2022-11-24T07:26:06.744Z,5.77
2022-11-24T07:28:37.087Z,5.87
2022-11-24T07:31:07.082Z,6.43
2022-11-24T07:33:34.353Z,6.30
2022-11-24T07:36:02.707Z,6.40
2022-11-24T07:38:31.492Z,6.30
2022-11-24T07:41:04.280Z,5.87
2022-11-24T07:43:33.257Z,6.37
2022-11-24T07:46:02.275Z,7.33
2022-11-24T07:48:29.417Z,6.43
2022-11-24T07:51:00.389Z,5.97
2022-11-24T07:53:27.428Z,6.80
2022-11-24T07:55:56.545Z,5.80
2022-11-24T07:58:27.615Z,5.90
2022-11-24T08:00:57.870Z,5.60
2022-11-24T08:03:26.424Z,5.97
2022-11-24T08:06:22.218Z,5.27
2022-11-24T08:08:41.801Z,6.00
2022-11-24T08:11:11.851Z,5.13
2022-11-24T08:13:39.463Z,6.10
2022-11-24T08:16:09.481Z,5.77
2022-11-24T08:18:39.180Z,5.70
2022-11-24T08:21:07.363Z,5.57
2022-11-24T08:23:35.010Z,5.60
2022-11-24T08:26:05.294Z,4.93
2022-11-24T08:28:33.291Z,5.87
2022-11-24T08:31:05.826Z,6.10
2022-11-24T08:33:33.565Z,6.13
2022-11-24T08:36:08.727Z,5.80
2022-11-24T08:38:36.866Z,6.80
2022-11-24T08:41:07.054Z,5.63
2022-11-24T08:43:34.549Z,5.40
2022-11-24T08:46:02.850Z,6.20
2022-11-24T08:48:30.551Z,4.67
2022-11-24T08:50:58.303Z,5.57
2022-11-24T08:53:26.732Z,5.83
2022-11-24T08:55:58.813Z,5.33
2022-11-24T08:58:25.873Z,5.33
2022-11-24T09:00:53.470Z,5.83
2022-11-24T09:03:20.741Z,4.87
2022-11-24T09:05:52.528Z,6.07
2022-11-24T09:08:20.601Z,12.17
2022-11-24T09:10:49.099Z,7.43
2022-11-24T09:13:16.103Z,6.93
2022-11-24T09:15:43.524Z,4.93
2022-11-24T09:18:10.960Z,5.53
2022-11-24T09:20:38.620Z,5.67
2022-11-24T09:23:05.837Z,5.23
2022-11-24T09:25:33.148Z,4.87
2022-11-24T09:28:01.766Z,10.50
2022-11-24T09:30:31.656Z,6.77
2022-11-24T09:32:58.695Z,5.73
2022-11-24T09:35:25.850Z,5.23
2022-11-24T09:37:52.916Z,5.67
2022-11-24T09:40:22.286Z,6.47
2022-11-24T09:43:01.699Z,4.90
2022-11-24T09:46:09.373Z,5.13
2022-11-24T09:48:49.105Z,5.00
2022-11-24T09:51:31.536Z,4.20
2022-11-24T09:54:18.669Z,5.30
2022-11-24T09:56:48.942Z,4.33
2022-11-24T09:59:19.986Z,4.03
2022-11-24T10:01:50.808Z,3.90
2022-11-24T10:04:22.786Z,4.80
2022-11-24T10:07:05.835Z,5.13
2022-11-24T10:09:51.607Z,4.30
2022-11-24T10:12:44.744Z,4.40
2022-11-24T10:15:30.244Z,4.37
2022-11-24T10:18:28.182Z,4.07
2022-11-24T10:21:07.343Z,4.80
2022-11-24T10:23:57.857Z,4.77
2022-11-24T10:26:36.304Z,4.80
2022-11-24T10:29:19.918Z,4.53
2022-11-24T10:31:54.929Z,3.40
2022-11-24T10:34:41.656Z,4.37
2022-11-24T10:37:34.557Z,4.90
2022-11-24T10:40:26.982Z,3.70
2022-11-24T10:43:00.039Z,4.37
2022-11-24T10:45:29.387Z,4.30
2022-11-24T10:47:58.410Z,4.60
2022-11-24T10:50:32.510Z,5.33
2022-11-24T10:53:13.263Z,5.80
2022-11-24T10:56:04.988Z,7.63
2022-11-24T10:58:38.290Z,5.43
2022-11-24T11:01:31.998Z,4.67
2022-11-24T11:04:01.588Z,4.50
2022-11-24T11:06:32.110Z,4.63
2022-11-24T11:09:19.540Z,3.97
2022-11-24T11:11:48.750Z,4.07
2022-11-24T11:14:31.974Z,4.60
2022-11-24T11:16:59.837Z,5.27
2022-11-24T11:19:56.879Z,4.97
2022-11-24T11:22:29.847Z,4.70
2022-11-24T11:25:18.292Z,5.37
2022-11-24T11:27:45.904Z,4.77
2022-11-24T11:36:14.489Z,5.13
2022-11-24T11:38:46.021Z,5.13
2022-11-24T11:41:21.618Z,5.23
2022-11-24T11:44:00.539Z,4.77
2022-11-24T11:46:32.621Z,5.27
2022-11-24T11:49:00.355Z,4.67
2022-11-24T11:51:52.015Z,4.73
2022-11-24T11:54:35.582Z,4.93
2022-11-24T11:57:17.633Z,4.63
2022-11-24T12:00:03.686Z,4.30
2022-11-24T12:03:25.735Z,4.13
2022-11-24T12:06:14.243Z,5.07
2022-11-24T12:09:19.356Z,5.67
2022-11-24T12:12:25.961Z,4.47
2022-11-24T12:15:11.007Z,4.47
2022-11-24T12:17:45.678Z,4.87
2022-11-24T12:20:41.127Z,3.93
2022-11-24T12:23:22.859Z,5.32
2022-11-24T12:26:01.956Z,4.43
2022-11-24T12:28:47.489Z,5.13
2022-11-24T12:31:28.754Z,4.27
2022-11-24T12:34:33.454Z,4.50
2022-11-24T12:37:22.115Z,3.57
2022-11-24T12:40:02.073Z,4.53
2022-11-24T12:42:42.246Z,4.27
2022-11-24T12:45:17.960Z,4.80
2022-11-24T12:48:15.172Z,4.43
2022-11-24T12:50:45.829Z,4.43
2022-11-24T12:53:19.964Z,4.30
2022-11-24T12:55:48.233Z,4.53
2022-11-24T12:58:28.987Z,4.20
2022-11-24T13:01:18.492Z,4.27
2022-11-24T13:04:07.615Z,3.47
2022-11-24T13:06:49.853Z,3.80
2022-11-24T13:09:17.902Z,3.80
2022-11-24T13:11:47.015Z,4.33
2022-11-24T13:14:22.436Z,3.77
2022-11-24T13:19:45.024Z,3.90
2022-11-24T13:22:23.320Z,3.63
2022-11-24T13:25:16.709Z,3.73
2022-11-24T13:27:48.034Z,3.30
2022-11-24T13:31:08.066Z,3.50
2022-11-24T13:33:40.383Z,3.10
2022-11-24T13:36:34.914Z,3.73
2022-11-24T13:39:18.304Z,3.63
2022-11-24T13:42:09.945Z,3.53
2022-11-24T13:44:58.934Z,3.47
2022-11-24T13:47:39.441Z,3.40
2022-11-24T13:50:24.958Z,7.27
2022-11-24T13:53:06.515Z,4.57
2022-11-24T13:55:38.921Z,4.87
2022-11-24T13:58:31.878Z,4.90
2022-11-24T14:01:10.721Z,3.33
2022-11-24T14:04:07.095Z,3.87
2022-11-24T14:06:45.672Z,4.17
2022-11-24T14:09:27.068Z,3.33
2022-11-24T14:12:11.426Z,3.50
2022-11-24T14:14:38.683Z,3.30
2022-11-24T14:17:16.862Z,3.77
2022-11-24T14:19:47.094Z,3.23
2022-11-24T14:22:21.506Z,4.18
2022-11-24T14:24:55.621Z,3.63
2022-11-24T14:27:29.626Z,3.80
2022-11-24T14:29:59.197Z,3.00
2022-11-24T14:32:26.790Z,3.00
2022-11-24T14:34:54.430Z,3.30
2022-11-24T14:37:23.210Z,3.13
2022-11-24T14:39:50.649Z,2.53
2022-11-24T14:42:21.999Z,2.97
2022-11-24T14:44:56.257Z,2.83
2022-11-24T14:47:31.728Z,3.07
2022-11-24T14:50:11.834Z,3.20
2022-11-24T14:52:47.778Z,3.43
2022-11-24T14:55:29.964Z,3.57
2022-11-24T14:57:57.734Z,2.90
2022-11-24T15:00:33.089Z,3.40
2022-11-24T15:03:17.945Z,3.17
2022-11-24T15:05:55.642Z,3.47
2022-11-24T15:08:26.346Z,3.77
2022-11-24T15:11:00.047Z,3.37
2022-11-24T15:13:29.037Z,4.20
2022-11-24T15:16:03.141Z,3.63
2022-11-24T15:18:43.301Z,4.17
2022-11-24T15:21:17.226Z,4.13
2022-11-24T15:24:21.361Z,4.10
2022-11-24T15:26:48.602Z,3.93
2022-11-24T15:29:16.060Z,3.90
2022-11-24T15:31:46.426Z,4.73
2022-11-24T15:34:20.515Z,4.53
2022-11-24T15:36:47.715Z,4.60
2022-11-24T15:39:20.449Z,4.53
2022-11-24T15:41:47.910Z,5.83
2022-11-24T15:44:18.672Z,5.67
2022-11-24T15:46:45.805Z,5.13
2022-11-24T15:49:13.693Z,5.47
2022-11-24T15:51:45.683Z,5.47
2022-11-24T15:54:15.903Z,5.87
2022-11-24T15:56:45.321Z,5.13
2022-11-24T15:59:21.426Z,5.60
2022-11-24T16:01:50.482Z,5.73
2022-11-24T16:04:17.669Z,5.53
2022-11-24T16:06:44.886Z,5.30
2022-11-24T16:09:15.583Z,5.60
2022-11-24T16:11:44.201Z,5.53
2022-11-24T16:14:11.330Z,6.20
2022-11-24T16:16:38.600Z,6.27
2022-11-24T16:19:05.656Z,5.57
2022-11-24T16:21:32.788Z,6.17
2022-11-24T16:24:00.219Z,5.60
2022-11-24T16:26:28.292Z,6.63
2022-11-24T16:28:57.158Z,6.40
2022-11-24T16:31:24.614Z,6.40
2022-11-24T16:33:51.840Z,6.30
2022-11-24T16:36:18.918Z,6.17
2022-11-24T16:38:46.088Z,6.27
2022-11-24T16:41:13.744Z,5.80
2022-11-24T16:43:41.141Z,6.10
2022-11-24T16:46:22.200Z,6.47
2022-11-24T16:48:51.524Z,6.50
2022-11-24T16:51:21.605Z,6.60
2022-11-24T16:53:56.103Z,6.67
2022-11-24T16:56:23.156Z,7.57
2022-11-24T16:58:50.268Z,6.83
2022-11-24T17:01:18.826Z,7.17
2022-11-24T17:03:46.102Z,6.57
2022-11-24T17:06:16.759Z,6.43
2022-11-24T17:08:45.989Z,7.73
2022-11-24T17:11:15.380Z,8.03
2022-11-24T17:13:43.633Z,8.40
2022-11-24T17:16:14.819Z,8.37
2022-11-24T17:18:45.206Z,7.73
2022-11-24T17:21:15.211Z,9.00
2022-11-24T17:23:42.751Z,8.57
2022-11-24T17:26:14.055Z,8.93
2022-11-24T17:28:42.200Z,8.23
2022-11-24T17:31:17.867Z,8.20
2022-11-24T17:33:50.081Z,8.03
2022-11-24T17:36:17.555Z,8.87
2022-11-24T17:38:44.690Z,8.23
2022-11-24T17:41:13.872Z,8.13
2022-11-24T17:43:41.260Z,8.27
2022-11-24T17:46:11.298Z,8.07
2022-11-24T17:48:38.868Z,9.03
2022-11-24T17:51:12.599Z,8.60
2022-11-24T17:53:41.250Z,9.17
2022-11-24T17:56:12.991Z,9.10
2022-11-24T17:58:43.167Z,8.57
2022-11-24T18:01:11.866Z,9.20
2022-11-24T18:03:39.375Z,9.47
2022-11-24T18:06:10.521Z,9.50
2022-11-24T18:08:40.337Z,9.30
2022-11-24T18:11:10.681Z,8.93
2022-11-24T18:16:27.860Z,9.77
2022-11-24T18:19:07.769Z,10.17
2022-11-24T18:21:37.796Z,9.47
2022-11-24T18:24:05.833Z,9.87
2022-11-24T18:26:32.871Z,10.77
2022-11-24T18:29:00.092Z,10.17
2022-11-24T18:31:27.202Z,9.87
2022-11-24T18:33:54.195Z,11.70
2022-11-24T18:36:28.351Z,11.77
2022-11-24T18:39:00.533Z,10.30
2022-11-24T18:41:27.563Z,11.03
2022-11-24T18:43:54.705Z,10.93
2022-11-24T18:46:22.168Z,10.17
2022-11-24T18:48:51.863Z,9.73
2022-11-24T18:51:18.807Z,10.07
2022-11-24T18:53:51.560Z,10.53
2022-11-24T18:56:31.867Z,11.23
2022-11-24T18:58:58.818Z,11.10
2022-11-24T19:01:28.371Z,10.20
2022-11-24T19:03:57.879Z,11.23
2022-11-24T19:06:28.872Z,10.60
2022-11-24T19:08:56.175Z,11.67
2022-11-24T19:11:28.161Z,10.77
2022-11-24T19:13:56.470Z,11.67
2022-11-24T19:16:24.913Z,12.27
2022-11-24T19:18:56.538Z,11.10
2022-11-24T19:21:33.739Z,11.57
2022-11-24T19:24:05.226Z,10.80
2022-11-24T19:26:35.296Z,11.10
2022-11-24T19:29:02.973Z,11.47
2022-11-24T19:31:30.175Z,10.53
2022-11-24T19:33:59.476Z,10.67
2022-11-24T19:36:26.733Z,11.60
2022-11-24T19:38:56.811Z,11.57
2022-11-24T19:41:26.864Z,11.07
2022-11-24T19:43:55.277Z,11.63
2022-11-24T19:46:26.146Z,10.47
2022-11-24T19:48:55.978Z,11.20
2022-11-24T19:51:26.245Z,10.63
2022-11-24T19:53:54.260Z,11.93
2022-11-24T19:56:23.555Z,11.17
2022-11-24T19:58:52.921Z,10.97
2022-11-24T20:01:24.654Z,10.17
2022-11-24T20:03:58.779Z,11.43
2022-11-24T20:06:28.543Z,9.77
2022-11-24T20:08:57.641Z,9.70
2022-11-24T20:11:25.007Z,11.33
2022-11-24T20:13:52.276Z,11.07
2022-11-24T20:16:29.793Z,12.30
2022-11-24T20:18:59.896Z,12.77
2022-11-24T20:21:31.309Z,11.57
2022-11-24T20:24:01.017Z,11.13
2022-11-24T20:26:31.404Z,10.73
2022-11-24T20:29:00.032Z,10.83
2022-11-24T20:31:31.029Z,10.77
2022-11-24T20:33:59.465Z,10.20
2022-11-24T20:36:29.140Z,10.60
2022-11-24T20:38:58.393Z,10.70
2022-11-24T20:41:28.531Z,10.13
2022-11-24T20:43:59.668Z,10.90
2022-11-24T20:46:31.354Z,11.13
2022-11-24T20:48:59.850Z,11.23
2022-11-24T20:51:29.828Z,11.50
2022-11-24T20:54:00.351Z,11.90
2022-11-24T20:56:29.965Z,11.50
2022-11-24T20:58:57.659Z,10.50
2022-11-24T21:01:34.970Z,11.10
2022-11-24T21:04:03.306Z,10.47
2022-11-24T21:06:32.750Z,12.50
2022-11-24T21:09:03.729Z,12.20
2022-11-24T21:11:31.676Z,12.43
2022-11-24T21:13:59.591Z,10.90
2022-11-24T21:16:29.748Z,11.20
2022-11-24T21:19:01.538Z,11.63
2022-11-24T21:21:33.948Z,11.60
2022-11-24T21:24:01.888Z,12.77
2022-11-24T21:26:29.374Z,11.57
2022-11-24T21:28:57.438Z,12.73
2022-11-24T21:31:24.583Z,12.17
2022-11-24T21:33:53.883Z,11.00
2022-11-24T21:36:24.680Z,11.93
2022-11-24T21:38:53.339Z,11.83
2022-11-24T21:41:21.743Z,12.33
2022-11-24T21:43:49.847Z,12.03
2022-11-24T21:46:17.357Z,13.67
2022-11-24T21:48:44.770Z,13.67
2022-11-24T21:51:14.269Z,12.20
2022-11-24T21:53:43.720Z,13.03
2022-11-24T21:56:14.134Z,13.27
2022-11-24T21:58:45.809Z,12.83
2022-11-24T22:01:14.049Z,13.70
2022-11-24T22:03:41.195Z,12.13
2022-11-24T22:06:08.658Z,12.50
2022-11-24T22:08:35.891Z,13.40
2022-11-24T22:11:07.814Z,13.80
2022-11-24T22:13:34.977Z,14.67
2022-11-24T22:16:05.115Z,13.73
2022-11-24T22:18:34.155Z,14.20
2022-11-24T22:21:04.947Z,13.97
2022-11-24T22:23:33.297Z,14.03
2022-11-24T22:26:05.233Z,15.53
2022-11-24T22:28:33.721Z,13.57
2022-11-24T22:31:04.991Z,16.37
2022-11-24T22:33:32.092Z,13.87
2022-11-24T22:36:00.758Z,13.67
2022-11-24T22:38:29.845Z,15.17
2022-11-24T22:41:02.091Z,15.03
2022-11-24T22:43:32.571Z,14.80
2022-11-24T22:46:03.969Z,15.70
2022-11-24T22:48:31.173Z,15.53
2022-11-24T22:51:02.923Z,15.40
2022-11-24T22:53:30.293Z,15.57
2022-11-24T22:56:00.837Z,13.63
2022-11-24T22:58:27.790Z,14.93
2022-11-24T23:00:56.097Z,14.47
2022-11-24T23:03:23.137Z,15.50
2022-11-24T23:05:51.248Z,15.33
2022-11-24T23:08:18.234Z,14.97
2022-11-24T23:10:45.183Z,14.37
2022-11-24T23:13:12.103Z,14.07
2022-11-24T23:15:39.043Z,15.20
2022-11-24T23:18:07.297Z,15.00
2022-11-24T23:20:35.043Z,15.20
2022-11-24T23:23:01.957Z,13.80
2022-11-24T23:25:28.897Z,14.10
2022-11-24T23:27:55.787Z,15.27
2022-11-24T23:30:22.758Z,13.10
2022-11-24T23:32:49.718Z,14.40
2022-11-24T23:35:18.103Z,14.97
2022-11-24T23:38:06.586Z,12.77
2022-11-24T23:40:31.885Z,12.90
2022-11-24T23:42:58.810Z,13.93
2022-11-24T23:45:25.780Z,14.47
2022-11-24T23:47:54.004Z,13.43
2022-11-24T23:50:22.272Z,13.20
2022-11-24T23:52:49.173Z,12.57
2022-11-24T23:55:16.181Z,14.23
2022-11-24T23:57:43.087Z,12.47
